Time;durP1;ratioP1;P1;durP2;ratioP2;P2;SDS_P1;SDS_P2;PMS_P1;PMS_P2;Temp;Humidity;BMP_temperature;BMP_pressure;BME280_temperature;BME280_humidity;BME280_pressure;Samples;Min_cycle;Max_cycle;Signal;HPM_P1;HPM_P2
2022/12/10 00:02:01;;;;;;;21.27;12.47;;;0.20;99.90;;;;;;5031884;28;20177;-84
2022/12/10 00:04:26;;;;;;;21.73;12.63;;;0.20;99.90;;;;;;5030665;28;20207;-84
2022/12/10 00:06:52;;;;;;;22.37;13.20;;;0.20;99.90;;;;;;5031965;28;20253;-84
2022/12/10 00:09:19;;;;;;;20.83;13.37;;;0.30;99.90;;;;;;5032093;28;20198;-83
2022/12/10 00:11:45;;;;;;;23.07;13.43;;;0.30;99.90;;;;;;5030933;28;20233;-84
2022/12/10 00:14:12;;;;;;;21.30;13.10;;;0.30;99.90;;;;;;5030565;28;20178;-84
2022/12/10 00:16:38;;;;;;;22.67;13.67;;;0.30;99.90;;;;;;5031894;28;20174;-83
2022/12/10 00:19:04;;;;;;;19.33;12.20;;;0.30;99.90;;;;;;5032001;28;20261;-84
2022/12/10 00:21:32;;;;;;;20.10;11.60;;;0.30;99.90;;;;;;5032309;28;20185;-84
2022/12/10 00:23:58;;;;;;;19.23;11.80;;;0.30;99.90;;;;;;5034843;28;20273;-84
2022/12/10 00:26:27;;;;;;;20.47;11.87;;;0.30;99.90;;;;;;5034562;28;20274;-85
2022/12/10 00:28:53;;;;;;;19.07;11.73;;;0.30;99.90;;;;;;5034441;28;20637;-84
2022/12/10 00:31:24;;;;;;;20.80;11.80;;;0.30;99.90;;;;;;5035630;28;20628;-84
2022/12/10 00:33:52;;;;;;;18.83;12.37;;;0.30;99.90;;;;;;5034520;28;20170;-86
2022/12/10 00:36:27;;;;;;;18.90;11.97;;;0.30;99.90;;;;;;5035835;28;20194;-84
2022/12/10 00:38:53;;;;;;;21.27;12.33;;;0.30;99.90;;;;;;5034001;28;20197;-84
2022/12/10 00:41:18;;;;;;;20.60;12.17;;;0.30;99.90;;;;;;5035557;28;20241;-84
2022/12/10 00:43:45;;;;;;;21.43;12.47;;;0.40;99.90;;;;;;5035382;28;20185;-84
2022/12/10 00:46:12;;;;;;;18.20;11.63;;;0.40;99.90;;;;;;5034143;28;20206;-84
2022/12/10 00:48:38;;;;;;;20.47;12.80;;;0.40;99.90;;;;;;5034284;28;20175;-84
2022/12/10 00:51:10;;;;;;;20.87;12.13;;;0.40;99.90;;;;;;5035298;28;20189;-84
2022/12/10 00:53:38;;;;;;;17.20;11.27;;;0.40;99.90;;;;;;5034002;28;20716;-85
2022/12/10 00:56:04;;;;;;;18.53;11.97;;;0.50;99.90;;;;;;5035126;28;20182;-84
2022/12/10 00:58:32;;;;;;;19.80;12.10;;;0.50;99.90;;;;;;5033900;28;20182;-84
2022/12/10 01:01:35;;;;;;;20.10;12.27;;;0.50;99.90;;;;;;5090933;22;20295;-84
2022/12/10 01:04:07;;;;;;;20.33;11.50;;;0.50;99.90;;;;;;5044306;28;20200;-85
2022/12/10 01:06:35;;;;;;;20.87;12.70;;;0.50;99.90;;;;;;5037653;28;20174;-84
2022/12/10 01:09:06;;;;;;;21.17;12.60;;;0.50;99.90;;;;;;5037597;28;20170;-87
2022/12/10 01:11:37;;;;;;;20.33;12.43;;;0.40;99.90;;;;;;5037265;28;20186;-84
2022/12/10 01:14:03;;;;;;;16.80;11.67;;;0.40;99.90;;;;;;5036788;28;20546;-85
2022/12/10 01:16:29;;;;;;;20.13;11.97;;;0.50;99.90;;;;;;5037263;28;20165;-84
2022/12/10 01:18:57;;;;;;;22.10;12.67;;;0.50;99.90;;;;;;5037382;28;20535;-84
2022/12/10 01:21:23;;;;;;;21.40;12.57;;;0.50;99.90;;;;;;5055021;28;20194;-85
2022/12/10 01:23:50;;;;;;;22.07;13.23;;;0.40;99.90;;;;;;5054787;28;20175;-85
2022/12/10 01:26:18;;;;;;;20.63;12.83;;;0.40;99.90;;;;;;5037146;28;20205;-85
2022/12/10 01:28:44;;;;;;;19.80;11.83;;;0.50;99.90;;;;;;5054777;28;20221;-84
2022/12/10 01:31:13;;;;;;;21.53;12.77;;;0.50;99.90;;;;;;5036960;28;20197;-84
2022/12/10 01:33:40;;;;;;;21.07;12.30;;;0.40;99.90;;;;;;5035296;28;20197;-84
2022/12/10 01:36:09;;;;;;;20.20;11.83;;;0.40;99.90;;;;;;5054828;28;20219;-84
2022/12/10 01:38:35;;;;;;;21.63;12.33;;;0.40;99.90;;;;;;5036660;28;20213;-84
2022/12/10 01:41:01;;;;;;;19.57;11.80;;;0.50;99.90;;;;;;5054726;28;20197;-84
2022/12/10 01:43:27;;;;;;;22.27;12.27;;;0.50;99.90;;;;;;5054376;28;20254;-86
2022/12/10 01:45:53;;;;;;;19.73;11.63;;;0.40;99.90;;;;;;5036514;28;20209;-86
2022/12/10 01:48:19;;;;;;;17.73;11.97;;;0.50;99.90;;;;;;5036735;28;20184;-85
2022/12/10 01:50:45;;;;;;;19.63;12.07;;;0.50;99.90;;;;;;5054967;28;20220;-84
2022/12/10 01:53:12;;;;;;;20.30;12.33;;;0.50;99.90;;;;;;5036318;28;20178;-85
2022/12/10 01:55:47;;;;;;;20.67;12.70;;;0.50;99.90;;;;;;5054281;28;20221;-85
2022/12/10 01:58:18;;;;;;;20.83;12.07;;;0.50;99.90;;;;;;5036408;28;20650;-84
2022/12/10 02:01:07;;;;;;;15.87;10.77;;;0.60;99.90;;;;;;5036147;28;20559;-84
2022/12/10 02:03:57;;;;;;;20.27;11.63;;;0.60;99.90;;;;;;5054354;28;20361;-85
2022/12/10 02:06:31;;;;;;;19.53;12.10;;;0.60;99.90;;;;;;5036652;28;20196;-84
2022/12/10 02:09:04;;;;;;;21.07;11.97;;;0.60;99.90;;;;;;5036121;28;20169;-84
2022/12/10 02:11:39;;;;;;;23.27;12.23;;;0.60;99.90;;;;;;5036209;28;20243;-84
2022/12/10 02:14:28;;;;;;;21.33;12.27;;;0.60;99.90;;;;;;5053864;28;20208;-85
2022/12/10 02:17:01;;;;;;;20.23;11.43;;;0.60;99.90;;;;;;5036563;28;20189;-84
2022/12/10 02:19:48;;;;;;;20.00;11.87;;;0.60;99.90;;;;;;5053918;28;20174;-85
2022/12/10 02:22:15;;;;;;;21.37;11.80;;;0.60;99.90;;;;;;5036015;28;20173;-82
2022/12/10 02:24:42;;;;;;;23.37;12.77;;;0.60;99.90;;;;;;5036000;28;20213;-86
2022/12/10 02:27:16;;;;;;;21.97;12.77;;;0.60;99.90;;;;;;5053682;28;20178;-84
2022/12/10 02:29:44;;;;;;;22.40;13.00;;;0.60;99.90;;;;;;5035801;28;20185;-85
2022/12/10 02:32:14;;;;;;;22.97;12.87;;;0.60;99.90;;;;;;5054006;28;20171;-86
2022/12/10 02:34:47;;;;;;;23.43;12.77;;;0.60;99.90;;;;;;5053644;28;20632;-84
2022/12/10 02:37:32;;;;;;;24.43;13.53;;;0.70;99.90;;;;;;5053528;28;20555;-85
2022/12/10 02:40:02;;;;;;;23.00;12.70;;;0.70;99.90;;;;;;5053517;28;20543;-84
2022/12/10 02:42:30;;;;;;;21.47;12.43;;;0.70;99.90;;;;;;5035531;28;20216;-85
2022/12/10 02:44:57;;;;;;;21.60;13.23;;;0.60;99.90;;;;;;5035177;28;20205;-85
2022/12/10 02:47:24;;;;;;;21.17;12.10;;;0.60;99.90;;;;;;5035670;28;20189;-85
2022/12/10 02:49:53;;;;;;;21.27;12.13;;;0.60;99.90;;;;;;5035446;28;20186;-85
2022/12/10 02:52:19;;;;;;;20.47;11.97;;;0.70;99.90;;;;;;5035367;28;20170;-85
2022/12/10 02:54:47;;;;;;;21.30;12.90;;;0.70;99.90;;;;;;5035567;28;20276;-85
2022/12/10 02:57:25;;;;;;;21.10;11.77;;;0.70;99.90;;;;;;5035169;28;20219;-84
2022/12/10 03:00:15;;;;;;;21.77;12.63;;;0.70;99.90;;;;;;5053223;28;20320;-85
2022/12/10 03:03:08;;;;;;;19.97;12.47;;;0.80;99.90;;;;;;5035373;28;20187;-85
2022/12/10 03:05:57;;;;;;;20.80;12.50;;;0.80;99.90;;;;;;5035032;28;20673;-84
2022/12/10 03:08:38;;;;;;;21.17;12.00;;;0.80;99.90;;;;;;5035377;28;20552;-85
2022/12/10 03:11:08;;;;;;;21.23;12.50;;;0.80;99.90;;;;;;5053107;28;20201;-85
2022/12/10 03:14:05;;;;;;;22.37;12.30;;;0.80;99.90;;;;;;5053059;28;20185;-84
2022/12/10 03:16:42;;;;;;;20.20;12.53;;;0.90;99.90;;;;;;5035036;28;20174;-84
2022/12/10 03:19:12;;;;;;;22.70;12.90;;;0.90;99.90;;;;;;5034931;28;20183;-84
2022/12/10 03:21:40;;;;;;;20.17;11.60;;;0.90;99.90;;;;;;5034678;28;20198;-85
2022/12/10 03:24:08;;;;;;;21.10;11.93;;;0.90;99.90;;;;;;5034820;28;20178;-84
2022/12/10 03:26:34;;;;;;;21.27;12.20;;;0.90;99.90;;;;;;5034799;28;20228;-85
2022/12/10 03:29:17;;;;;;;19.77;11.83;;;0.90;99.90;;;;;;5034661;28;20173;-85
2022/12/10 03:31:43;;;;;;;20.83;12.47;;;0.90;99.90;;;;;;5034550;28;20186;-85
2022/12/10 03:34:10;;;;;;;21.23;12.10;;;0.80;99.90;;;;;;5034753;28;20177;-84
2022/12/10 03:36:37;;;;;;;20.70;12.00;;;0.80;99.90;;;;;;5052486;28;20169;-84
2022/12/10 03:39:04;;;;;;;22.60;12.70;;;0.80;99.90;;;;;;5052755;28;20202;-85
2022/12/10 03:41:30;;;;;;;21.93;12.27;;;0.80;99.90;;;;;;5052453;28;20201;-86
2022/12/10 03:43:58;;;;;;;21.67;13.10;;;0.80;99.90;;;;;;5052535;28;20182;-87
2022/12/10 03:46:26;;;;;;;20.57;11.80;;;0.90;99.90;;;;;;5034169;28;20580;-85
2022/12/10 03:48:52;;;;;;;22.80;12.90;;;0.90;99.90;;;;;;5034421;28;20184;-85
2022/12/10 03:51:18;;;;;;;20.53;12.10;;;0.80;99.90;;;;;;5034439;28;20193;-85
2022/12/10 03:53:43;;;;;;;22.07;12.67;;;0.80;99.90;;;;;;5052073;28;20197;-85
2022/12/10 03:56:09;;;;;;;22.33;12.93;;;0.80;99.90;;;;;;5051601;28;20208;-85
2022/12/10 03:58:35;;;;;;;21.43;12.43;;;0.80;99.90;;;;;;5034265;28;20683;-86
2022/12/10 04:01:01;;;;;;;21.83;12.60;;;0.70;99.90;;;;;;5034571;28;20214;-85
2022/12/10 04:03:27;;;;;;;21.07;11.83;;;0.70;99.90;;;;;;5034285;28;20177;-85
2022/12/10 04:05:53;;;;;;;23.20;13.00;;;0.70;99.90;;;;;;5052141;28;20198;-84
2022/12/10 04:08:18;;;;;;;22.40;13.13;;;0.60;99.90;;;;;;5052209;28;20172;-84
2022/12/10 04:10:44;;;;;;;23.33;13.00;;;0.60;99.90;;;;;;5052210;28;20193;-84
2022/12/10 04:18:40;;;;;;;24.87;12.47;;;0.60;99.90;;;;;;5052630;28;20632;-85
2022/12/10 04:29:18;;;;;;;22.87;12.33;;;0.60;99.90;;;;;;5052112;28;20177;-84
2022/12/10 04:31:44;;;;;;;24.03;13.63;;;0.70;99.90;;;;;;5051771;28;20174;-86
2022/12/10 04:34:09;;;;;;;21.17;12.67;;;0.70;99.90;;;;;;5033735;28;20182;-85
2022/12/10 04:36:35;;;;;;;23.80;12.90;;;0.70;99.90;;;;;;5052250;28;20165;-84
2022/12/10 04:39:01;;;;;;;24.83;13.00;;;0.80;99.90;;;;;;5034095;28;20239;-84
2022/12/10 04:41:26;;;;;;;23.13;12.30;;;0.80;99.90;;;;;;5033977;28;20196;-84
2022/12/10 04:43:52;;;;;;;22.13;13.40;;;0.80;99.90;;;;;;5034474;28;20174;-84
2022/12/10 04:46:18;;;;;;;22.57;12.67;;;0.80;99.90;;;;;;5037650;28;20207;-84
2022/12/10 04:48:44;;;;;;;23.47;12.93;;;0.80;99.90;;;;;;5045734;28;20169;-84
2022/12/10 04:51:09;;;;;;;21.77;12.33;;;0.80;99.90;;;;;;5045553;28;20185;-84
2022/12/10 04:53:35;;;;;;;23.27;12.80;;;0.80;99.90;;;;;;5038787;28;20170;-84
2022/12/10 04:56:04;;;;;;;21.53;12.83;;;0.70;99.90;;;;;;5034051;28;20201;-84
2022/12/10 04:58:30;;;;;;;22.10;12.80;;;0.70;99.90;;;;;;5051569;28;20264;-84
2022/12/10 05:01:11;;;;;;;21.83;12.57;;;0.70;99.90;;;;;;5045476;28;20331;-84
2022/12/10 05:03:37;;;;;;;23.23;13.40;;;0.70;99.90;;;;;;5053587;28;20181;-84
2022/12/10 05:06:07;;;;;;;21.37;12.20;;;0.60;99.90;;;;;;5071585;28;20204;-84
2022/12/10 05:08:34;;;;;;;23.03;12.70;;;0.60;99.90;;;;;;5074673;28;20166;-84
2022/12/10 05:11:11;;;;;;;21.57;11.97;;;0.60;99.90;;;;;;5057716;28;20193;-84
2022/12/10 05:13:37;;;;;;;21.53;11.93;;;0.60;99.90;;;;;;5057202;28;20199;-85
2022/12/10 05:16:04;;;;;;;21.13;11.77;;;0.60;99.90;;;;;;5057316;28;20647;-84
2022/12/10 05:18:29;;;;;;;20.70;12.03;;;0.60;99.90;;;;;;5057335;28;20183;-84
2022/12/10 05:20:58;;;;;;;22.80;12.13;;;0.70;99.90;;;;;;5068263;28;20284;-84
2022/12/10 05:23:27;;;;;;;23.00;12.87;;;0.70;99.90;;;;;;5066628;28;20219;-86
2022/12/10 05:25:58;;;;;;;21.53;12.30;;;0.70;99.90;;;;;;5075065;28;20212;-84
2022/12/10 05:28:24;;;;;;;20.50;12.10;;;0.70;99.90;;;;;;5057098;28;20243;-84
2022/12/10 05:30:50;;;;;;;22.63;12.60;;;0.70;99.90;;;;;;5057008;28;20225;-84
2022/12/10 05:33:16;;;;;;;20.40;11.63;;;0.70;99.90;;;;;;5074728;28;20202;-85
2022/12/10 05:35:41;;;;;;;20.30;11.93;;;0.70;99.90;;;;;;5056782;28;20188;-84
2022/12/10 05:38:07;;;;;;;20.57;11.60;;;0.70;99.90;;;;;;5047860;28;20199;-84
2022/12/10 05:40:39;;;;;;;21.73;12.13;;;0.70;99.90;;;;;;5074855;28;20188;-84
2022/12/10 05:43:04;;;;;;;22.20;12.37;;;0.70;99.90;;;;;;5074858;28;20181;-84
2022/12/10 05:45:32;;;;;;;19.73;11.73;;;0.60;99.90;;;;;;5056678;28;20227;-85
2022/12/10 05:47:58;;;;;;;19.27;11.70;;;0.60;99.90;;;;;;5056534;28;20177;-84
2022/12/10 05:50:23;;;;;;;21.70;12.33;;;0.60;99.90;;;;;;5074649;28;20197;-85
2022/12/10 05:52:50;;;;;;;22.83;12.73;;;0.60;99.90;;;;;;5056355;28;20184;-85
2022/12/10 05:55:16;;;;;;;22.50;12.93;;;0.50;99.90;;;;;;5074350;28;20173;-84
2022/12/10 05:57:42;;;;;;;22.60;12.60;;;0.50;99.90;;;;;;5074364;28;20188;-86
2022/12/10 06:00:08;;;;;;;22.90;12.37;;;0.40;99.90;;;;;;5056191;28;20235;-85
2022/12/10 06:02:33;;;;;;;23.47;13.03;;;0.50;99.90;;;;;;5069217;28;20189;-84
2022/12/10 06:04:59;;;;;;;24.73;13.53;;;0.40;99.90;;;;;;5047355;28;20261;-84
2022/12/10 06:07:25;;;;;;;24.43;13.23;;;0.40;99.90;;;;;;5062377;28;20205;-83
2022/12/10 06:09:50;;;;;;;25.17;13.63;;;0.50;99.90;;;;;;5071192;28;20193;-81
2022/12/10 06:12:16;;;;;;;25.70;13.47;;;0.60;99.90;;;;;;5055983;28;20173;-82
2022/12/10 06:14:42;;;;;;;24.03;13.10;;;0.50;99.90;;;;;;5074054;28;20276;-82
2022/12/10 06:17:08;;;;;;;26.17;13.63;;;0.50;99.90;;;;;;5056135;28;20271;-82
2022/12/10 06:19:33;;;;;;;24.40;13.00;;;0.50;99.90;;;;;;5055615;28;20185;-82
2022/12/10 06:21:59;;;;;;;21.00;12.23;;;1.30;99.90;;;;;;5056608;28;20181;-80
2022/12/10 06:24:25;;;;;;;24.67;13.17;;;1.70;99.90;;;;;;5056056;28;20174;-80
2022/12/10 06:26:50;;;;;;;23.23;12.60;;;1.60;99.90;;;;;;5074102;28;20169;-79
2022/12/10 06:29:16;;;;;;;21.67;12.87;;;1.90;99.90;;;;;;5055990;28;20169;-81
2022/12/10 06:31:42;;;;;;;21.23;12.63;;;2.40;99.90;;;;;;5055746;28;20180;-82
2022/12/10 06:34:07;;;;;;;22.60;12.63;;;2.30;99.90;;;;;;5055699;28;20308;-82
2022/12/10 06:36:33;;;;;;;20.60;12.03;;;1.90;99.90;;;;;;5054760;28;20177;-81
2022/12/10 06:38:59;;;;;;;20.27;12.17;;;1.70;99.90;;;;;;5063665;28;20179;-80
2022/12/10 06:41:24;;;;;;;23.87;13.13;;;1.50;99.90;;;;;;5055672;28;20240;-81
2022/12/10 06:43:50;;;;;;;21.90;12.37;;;1.30;99.90;;;;;;5055835;28;20637;-81
2022/12/10 06:46:19;;;;;;;21.93;12.23;;;1.20;99.90;;;;;;5055482;28;20198;-82
2022/12/10 06:48:45;;;;;;;19.43;11.17;;;1.10;99.90;;;;;;5045331;28;20177;-81
2022/12/10 06:51:12;;;;;;;21.03;12.23;;;1.00;99.90;;;;;;5065039;28;20194;-82
2022/12/10 06:53:38;;;;;;;21.33;12.97;;;0.90;99.90;;;;;;5055286;28;20265;-82
2022/12/10 06:56:05;;;;;;;22.93;12.60;;;0.90;99.90;;;;;;5055501;28;20184;-82
2022/12/10 06:58:32;;;;;;;21.00;12.50;;;0.90;99.90;;;;;;5073196;28;20194;-80
2022/12/10 07:01:09;;;;;;;21.63;12.77;;;0.90;99.90;;;;;;5065985;22;20226;-83
2022/12/10 07:03:35;;;;;;;21.90;12.00;;;0.80;99.90;;;;;;5032878;28;20171;-84
2022/12/10 07:06:02;;;;;;;22.30;13.47;;;0.90;99.90;;;;;;5031683;28;20214;-84
2022/12/10 07:08:27;;;;;;;22.63;12.90;;;0.90;99.90;;;;;;5031650;28;20174;-83
2022/12/10 07:10:53;;;;;;;22.23;12.93;;;0.90;99.90;;;;;;5031616;28;20194;-84
2022/12/10 07:13:19;;;;;;;20.60;11.73;;;0.90;99.90;;;;;;5032806;28;20175;-83
2022/12/10 07:15:44;;;;;;;21.50;12.53;;;0.80;99.90;;;;;;5031805;28;20555;-84
2022/12/10 07:18:10;;;;;;;22.03;12.27;;;0.80;99.90;;;;;;5032837;28;20217;-83
2022/12/10 07:20:36;;;;;;;20.87;12.20;;;0.80;99.90;;;;;;5032782;28;20198;-84
2022/12/10 07:23:01;;;;;;;22.77;12.23;;;0.80;99.90;;;;;;5032873;28;20189;-84
2022/12/10 07:25:27;;;;;;;23.00;13.10;;;0.80;99.90;;;;;;5031455;28;20203;-83
2022/12/10 07:27:52;;;;;;;24.73;13.03;;;0.80;99.90;;;;;;5031455;28;20175;-83
2022/12/10 07:30:18;;;;;;;21.27;12.00;;;0.80;99.90;;;;;;5030614;28;20631;-83
2022/12/10 07:32:44;;;;;;;20.93;11.80;;;0.70;99.90;;;;;;5030894;28;20170;-85
2022/12/10 07:35:09;;;;;;;20.30;11.13;;;0.70;99.90;;;;;;5032472;28;20175;-83
2022/12/10 07:37:35;;;;;;;22.53;12.80;;;0.80;99.90;;;;;;5032727;28;20225;-83
2022/12/10 07:40:00;;;;;;;23.53;13.90;;;0.70;99.90;;;;;;5031228;28;20263;-84
2022/12/10 07:42:26;;;;;;;18.07;10.03;;;0.80;99.90;;;;;;5031207;28;20174;-82
2022/12/10 07:44:51;;;;;;;19.70;10.73;;;0.80;99.90;;;;;;5031065;28;20255;-83
2022/12/10 07:47:17;;;;;;;24.73;15.73;;;0.80;99.90;;;;;;5031302;28;20201;-82
2022/12/10 07:49:43;;;;;;;18.80;10.77;;;0.80;99.90;;;;;;5031170;28;20177;-82
2022/12/10 07:52:08;;;;;;;17.60;10.13;;;0.90;99.90;;;;;;5032072;28;20657;-82
2022/12/10 07:54:34;;;;;;;17.60;10.23;;;0.90;99.90;;;;;;5030931;28;20257;-81
2022/12/10 07:56:59;;;;;;;18.83;10.77;;;0.90;99.90;;;;;;5032561;28;20269;-82
2022/12/10 07:59:25;;;;;;;17.73;9.80;;;1.00;99.90;;;;;;5030871;28;20214;-81
2022/12/10 08:01:51;;;;;;;20.03;10.53;;;1.00;99.90;;;;;;5047709;28;20688;-81
2022/12/10 08:04:17;;;;;;;28.03;16.73;;;1.00;99.90;;;;;;5051838;28;20596;-82
2022/12/10 08:06:42;;;;;;;22.70;13.67;;;1.00;99.90;;;;;;5051006;28;20162;-82
2022/12/10 08:09:09;;;;;;;18.10;10.13;;;1.00;99.90;;;;;;5051065;28;20203;-81
2022/12/10 08:11:35;;;;;;;17.73;9.53;;;1.10;99.90;;;;;;5049965;28;20213;-81
2022/12/10 08:14:00;;;;;;;16.17;10.23;;;1.10;99.90;;;;;;5050274;28;20201;-78
2022/12/10 08:16:28;;;;;;;17.80;10.47;;;1.10;99.90;;;;;;5051882;28;20219;-82
2022/12/10 08:18:56;;;;;;;16.67;10.50;;;1.10;99.90;;;;;;5050661;28;20260;-82
2022/12/10 08:21:24;;;;;;;16.80;9.87;;;1.10;99.90;;;;;;5050461;28;20198;-82
2022/12/10 08:23:50;;;;;;;18.00;10.20;;;1.10;99.90;;;;;;5051583;28;20686;-81
2022/12/10 08:26:18;;;;;;;19.93;12.03;;;1.20;99.90;;;;;;5050518;28;20209;-82
2022/12/10 08:28:45;;;;;;;20.77;11.90;;;1.20;99.90;;;;;;5050519;28;20180;-83
2022/12/10 08:31:13;;;;;;;24.50;15.10;;;1.10;99.90;;;;;;5050450;28;20558;-83
2022/12/10 08:33:39;;;;;;;17.70;10.40;;;1.20;99.90;;;;;;5051531;28;20173;-83
2022/12/10 08:36:07;;;;;;;17.57;9.97;;;1.10;99.90;;;;;;5052050;28;20182;-82
2022/12/10 08:38:34;;;;;;;16.30;9.97;;;1.20;99.90;;;;;;5050233;28;20177;-82
2022/12/10 08:41:04;;;;;;;19.10;10.23;;;1.20;99.90;;;;;;5050437;28;20202;-82
2022/12/10 08:43:30;;;;;;;17.30;9.43;;;1.20;99.90;;;;;;5054562;28;20222;-83
2022/12/10 08:45:58;;;;;;;17.67;10.37;;;1.30;99.90;;;;;;5054367;28;20229;-81
2022/12/10 08:48:23;;;;;;;16.90;9.80;;;1.40;99.90;;;;;;5054944;28;20170;-82
2022/12/10 08:50:49;;;;;;;18.17;11.23;;;1.40;99.90;;;;;;5050222;28;20560;-82
2022/12/10 08:53:15;;;;;;;16.17;9.20;;;1.40;99.90;;;;;;5054096;28;20725;-81
2022/12/10 08:55:40;;;;;;;25.53;14.37;;;1.40;99.90;;;;;;5055504;28;20170;-80
2022/12/10 08:58:07;;;;;;;17.83;10.23;;;1.30;99.90;;;;;;5055435;28;20272;-81
2022/12/10 09:00:32;;;;;;;21.50;11.80;;;1.40;99.90;;;;;;5054056;28;20209;-81
2022/12/10 09:02:58;;;;;;;17.60;10.93;;;1.40;99.90;;;;;;5053950;28;20265;-81
2022/12/10 09:05:24;;;;;;;17.20;10.07;;;1.50;99.90;;;;;;5055603;28;20349;-81
2022/12/10 09:07:50;;;;;;;17.60;10.47;;;1.50;99.90;;;;;;5053829;28;20241;-82
2022/12/10 09:10:16;;;;;;;16.70;9.70;;;1.60;99.90;;;;;;5054948;28;20194;-80
2022/12/10 09:12:41;;;;;;;19.87;10.40;;;1.40;99.90;;;;;;5053694;28;20170;-81
2022/12/10 09:15:09;;;;;;;18.93;10.13;;;1.50;99.90;;;;;;5054255;28;20174;-82
2022/12/10 09:17:36;;;;;;;15.83;10.00;;;1.70;99.90;;;;;;5054817;28;20178;-83
2022/12/10 09:20:02;;;;;;;16.30;9.30;;;1.80;99.90;;;;;;5053852;28;20175;-83
2022/12/10 09:22:28;;;;;;;15.53;9.20;;;1.90;99.90;;;;;;5053489;28;20641;-83
2022/12/10 09:24:54;;;;;;;16.40;9.90;;;1.90;99.90;;;;;;5053748;28;20200;-82
2022/12/10 09:27:20;;;;;;;16.53;10.03;;;1.80;99.90;;;;;;5057611;28;20171;-80
2022/12/10 09:29:45;;;;;;;17.50;9.70;;;1.80;99.90;;;;;;5053783;28;20595;-81
2022/12/10 09:32:11;;;;;;;14.73;9.17;;;1.80;99.90;;;;;;5053510;28;20664;-83
2022/12/10 09:34:37;;;;;;;15.37;8.50;;;1.70;99.90;;;;;;5054646;28;20551;-84
2022/12/10 09:37:02;;;;;;;15.60;8.70;;;1.80;99.90;;;;;;5053503;28;20594;-81
2022/12/10 09:39:28;;;;;;;13.83;8.87;;;1.80;99.90;;;;;;5054960;28;20266;-82
2022/12/10 09:42:21;;;;;;;14.70;9.07;;;1.80;99.90;;;;;;5054598;28;20192;-83
2022/12/10 09:45:44;;;;;;;15.97;9.33;;;1.70;99.90;;;;;;5053385;28;20211;-83
2022/12/10 09:48:46;;;;;;;14.37;8.40;;;1.70;99.90;;;;;;5012487;28;20291;-83
2022/12/10 09:51:23;;;;;;;15.13;8.83;;;1.80;99.90;;;;;;5012304;28;20264;-84
2022/12/10 09:53:57;;;;;;;13.23;8.33;;;1.70;99.90;;;;;;5046541;28;20213;-84
2022/12/10 09:56:28;;;;;;;13.10;8.50;;;1.60;99.90;;;;;;5054338;28;20549;-81
2022/12/10 09:58:54;;;;;;;14.53;9.40;;;1.40;99.90;;;;;;5054127;28;20209;-83
2022/12/10 10:01:25;;;;;;;21.43;12.50;;;1.40;99.90;;;;;;5052927;28;20241;-80
2022/12/10 10:03:50;;;;;;;13.67;8.53;;;1.40;99.90;;;;;;5054248;28;20178;-81
2022/12/10 10:06:16;;;;;;;14.27;7.97;;;1.40;99.90;;;;;;5052852;28;20680;-82
2022/12/10 10:08:51;;;;;;;14.27;8.37;;;1.30;99.90;;;;;;5052779;28;20223;-82
2022/12/10 10:11:30;;;;;;;13.83;8.07;;;1.30;99.90;;;;;;5053142;28;20231;-81
2022/12/10 10:14:00;;;;;;;16.90;9.70;;;1.30;99.90;;;;;;5054920;28;20165;-81
2022/12/10 10:16:28;;;;;;;27.93;16.30;;;1.40;99.90;;;;;;5055501;28;20173;-81
2022/12/10 10:19:04;;;;;;;23.43;12.83;;;1.40;99.90;;;;;;5056301;28;20178;-82
2022/12/10 10:21:42;;;;;;;22.10;13.40;;;1.50;99.90;;;;;;5053037;28;20197;-81
2022/12/10 10:24:15;;;;;;;13.47;8.13;;;1.50;99.90;;;;;;5054018;28;20213;-82
2022/12/10 10:26:40;;;;;;;21.37;14.30;;;1.50;99.90;;;;;;5052987;28;20212;-81
2022/12/10 10:29:09;;;;;;;13.80;8.50;;;1.60;99.90;;;;;;5052880;28;20170;-82
2022/12/10 10:31:38;;;;;;;16.10;9.43;;;1.50;99.90;;;;;;5053044;28;20273;-83
2022/12/10 10:34:21;;;;;;;16.37;10.43;;;1.60;99.90;;;;;;5053473;28;20174;-84
2022/12/10 10:36:52;;;;;;;14.37;9.23;;;1.60;99.90;;;;;;5052600;28;20170;-84
2022/12/10 10:39:18;;;;;;;90.60;41.07;;;1.80;99.90;;;;;;5052518;28;20200;-84
2022/12/10 10:41:50;;;;;;;31.47;19.70;;;1.70;99.90;;;;;;5053387;28;20217;-84
2022/12/10 10:44:19;;;;;;;18.23;11.47;;;1.70;99.90;;;;;;5053343;28;20233;-84
2022/12/10 10:46:46;;;;;;;13.63;8.73;;;1.70;99.90;;;;;;5053037;28;20664;-84
2022/12/10 10:49:24;;;;;;;13.30;8.57;;;1.60;99.90;;;;;;5053309;28;20262;-84
2022/12/10 10:51:52;;;;;;;14.93;9.23;;;1.70;99.90;;;;;;5051953;28;20207;-85
2022/12/10 10:54:36;;;;;;;14.70;8.70;;;1.70;99.90;;;;;;5051802;28;20178;-83
2022/12/10 10:57:05;;;;;;;12.33;8.63;;;1.60;99.90;;;;;;5051969;28;20269;-83
2022/12/10 10:59:36;;;;;;;14.37;8.87;;;1.50;99.90;;;;;;5053118;28;20181;-83
2022/12/10 11:02:24;;;;;;;14.47;9.40;;;1.60;99.90;;;;;;5053009;28;20214;-83
2022/12/10 11:04:55;;;;;;;13.63;8.70;;;1.60;99.90;;;;;;5052344;28;20230;-83
2022/12/10 11:07:41;;;;;;;13.40;7.83;;;1.60;99.90;;;;;;5052184;28;20609;-83
2022/12/10 11:10:22;;;;;;;14.03;9.27;;;1.60;99.90;;;;;;5052110;28;20182;-83
2022/12/10 11:12:56;;;;;;;14.53;9.90;;;1.60;99.90;;;;;;5051078;28;20236;-84
2022/12/10 11:15:22;;;;;;;14.23;8.97;;;1.40;99.90;;;;;;5052929;28;20173;-82
2022/12/10 11:17:53;;;;;;;12.73;8.27;;;1.30;99.90;;;;;;5051746;28;20205;-84
2022/12/10 11:20:23;;;;;;;12.57;7.90;;;1.30;99.90;;;;;;5051693;28;20297;-82
2022/12/10 11:22:55;;;;;;;13.00;8.17;;;1.60;99.90;;;;;;5053022;28;20181;-83
2022/12/10 11:25:47;;;;;;;12.70;7.83;;;2.00;99.90;;;;;;5051773;28;20268;-83
2022/12/10 11:29:11;;;;;;;13.93;8.40;;;2.90;99.90;;;;;;5052364;28;20174;-83
2022/12/10 11:31:58;;;;;;;12.17;7.27;;;3.90;99.90;;;;;;4992642;28;20204;-83
2022/12/10 11:35:14;;;;;;;12.40;6.90;;;4.20;99.90;;;;;;5051793;28;20260;-83
2022/12/10 11:38:18;;;;;;;12.67;8.83;;;4.50;99.90;;;;;;4977442;28;20220;-83
2022/12/10 11:41:01;;;;;;;10.87;8.10;;;4.20;99.90;;;;;;5034353;28;20589;-82
2022/12/10 11:43:53;;;;;;;10.53;6.90;;;4.50;99.90;;;;;;5031998;28;20249;-84
2022/12/10 11:46:46;;;;;;;9.37;6.77;;;4.90;99.90;;;;;;5034226;28;20712;-83
2022/12/10 11:49:42;;;;;;;10.97;7.60;;;4.60;99.90;;;;;;5033690;28;20211;-82
2022/12/10 11:52:25;;;;;;;13.03;8.30;;;4.40;99.90;;;;;;5033952;28;20225;-82
2022/12/10 11:54:53;;;;;;;11.87;7.83;;;3.90;99.90;;;;;;5039546;28;20239;-82
2022/12/10 11:57:24;;;;;;;10.53;7.43;;;3.60;99.90;;;;;;5052034;28;20177;-83
2022/12/10 12:00:24;;;;;;;11.70;8.67;;;3.30;99.90;;;;;;5052961;28;20251;-82
2022/12/10 12:02:49;;;;;;;11.57;7.37;;;2.50;99.90;;;;;;5019723;28;20663;-80
2022/12/10 12:05:24;;;;;;;11.77;8.53;;;2.30;99.90;;;;;;5051452;28;20299;-80
2022/12/10 12:08:19;;;;;;;11.77;8.10;;;2.10;99.90;;;;;;5051176;28;20180;-80
2022/12/10 12:10:50;;;;;;;26.03;21.20;;;2.10;99.90;;;;;;4981752;28;20213;-80
2022/12/10 12:13:22;;;;;;;11.97;8.53;;;1.90;99.90;;;;;;5051979;28;20174;-81
2022/12/10 12:16:03;;;;;;;13.90;9.63;;;2.00;99.90;;;;;;5051142;28;20176;-80
2022/12/10 12:18:43;;;;;;;14.20;9.63;;;2.10;99.90;;;;;;5055506;28;20179;-80
2022/12/10 12:21:11;;;;;;;11.50;8.20;;;2.10;99.90;;;;;;5056419;28;20204;-80
2022/12/10 12:23:49;;;;;;;11.00;7.10;;;2.10;99.90;;;;;;5055092;28;20185;-81
2022/12/10 12:26:29;;;;;;;10.27;7.10;;;2.20;99.90;;;;;;5055559;28;20287;-80
2022/12/10 12:29:33;;;;;;;10.90;7.57;;;2.30;99.90;;;;;;5055876;28;20171;-83
2022/12/10 12:32:14;;;;;;;9.40;6.90;;;2.30;99.90;;;;;;5043091;28;20200;-83
2022/12/10 12:35:21;;;;;;;9.27;6.43;;;2.40;99.90;;;;;;5055544;28;20182;-83
2022/12/10 12:38:00;;;;;;;8.40;5.70;;;2.40;99.90;;;;;;5016421;28;20215;-83
2022/12/10 12:40:51;;;;;;;7.83;5.80;;;2.30;99.90;;;;;;5056546;28;20282;-83
2022/12/10 12:43:22;;;;;;;9.37;7.30;;;2.30;99.90;;;;;;5056765;28;20184;-84
2022/12/10 12:45:51;;;;;;;7.77;5.93;;;2.40;99.90;;;;;;5056294;28;20250;-83
2022/12/10 12:48:34;;;;;;;8.00;5.77;;;2.40;99.90;;;;;;5055516;28;20309;-83
2022/12/10 12:51:17;;;;;;;7.70;5.30;;;2.30;99.90;;;;;;5055301;28;20199;-83
2022/12/10 12:53:43;;;;;;;6.33;4.90;;;2.10;99.90;;;;;;5056089;28;20242;-83
2022/12/10 12:56:46;;;;;;;6.17;4.80;;;2.10;99.90;;;;;;5054847;28;20720;-83
2022/12/10 12:59:31;;;;;;;7.63;5.10;;;2.00;99.90;;;;;;5054842;28;20173;-83
2022/12/10 13:02:16;;;;;;;7.00;5.17;;;2.00;99.90;;;;;;5100878;22;20274;-81
2022/12/10 13:04:42;;;;;;;7.73;5.60;;;1.80;99.90;;;;;;5017450;28;20596;-81
2022/12/10 13:07:14;;;;;;;11.53;8.17;;;1.80;99.90;;;;;;5017706;28;20183;-81
2022/12/10 13:09:47;;;;;;;7.43;4.93;;;1.70;99.90;;;;;;5017607;28;20177;-81
2022/12/10 13:12:31;;;;;;;8.37;5.63;;;1.70;99.90;;;;;;5017251;28;20199;-78
2022/12/10 13:15:33;;;;;;;7.53;5.10;;;1.70;99.90;;;;;;5017570;28;20176;-81